Terminal Aerodrome Forecast
Issued by NWS Riverton, WY

Home | Current Version | Previous Version | Text Only | Print | Product List | Glossary On
Versions: 1 2 3 4 5 6 7 8 9 10 11 12
041
FTUS45 KRIW 011720
TAFRIW
TAF
KRIW 011720Z 0118/0218 VRB06KT P6SM SKC
     FM012000 22008G15KT P6SM FEW080
     FM020200 28007KT P6SM FEW090
     FM020600 VRB05KT P6SM SCT110=

USA.gov is the U.S. government's official web portal to all federal, state and local government web resources and services.